sensor_id;sensor_type;location;lat;lon;timestamp;P1;durP1;ratioP1;P2;durP2;ratioP2
13319;SDS011;59599;47.608;12.190;2023-07-20T04:00:10;7.75;;;4.20;;
13319;SDS011;59599;47.608;12.190;2023-07-20T04:02:37;7.53;;;3.70;;
13319;SDS011;59599;47.608;12.190;2023-07-20T04:05:07;6.88;;;4.28;;
13319;SDS011;59599;47.608;12.190;2023-07-20T04:07:38;4.60;;;3.78;;
13319;SDS011;59599;47.608;12.190;2023-07-20T04:10:05;5.40;;;3.40;;
13319;SDS011;59599;47.608;12.190;2023-07-20T04:12:50;5.57;;;3.17;;
13319;SDS011;59599;47.608;12.190;2023-07-20T04:15:17;6.97;;;3.20;;
13319;SDS011;59599;47.608;12.190;2023-07-20T04:17:44;5.18;;;3.88;;
13319;SDS011;59599;47.608;12.190;2023-07-20T04:20:10;6.32;;;4.03;;
13319;SDS011;59599;47.608;12.190;2023-07-20T04:22:36;5.65;;;3.90;;
13319;SDS011;59599;47.608;12.190;2023-07-20T04:25:03;5.28;;;3.33;;
13319;SDS011;59599;47.608;12.190;2023-07-20T04:27:29;5.63;;;4.00;;
13319;SDS011;59599;47.608;12.190;2023-07-20T04:29:55;4.75;;;4.13;;
13319;SDS011;59599;47.608;12.190;2023-07-20T04:32:21;4.72;;;3.63;;
13319;SDS011;59599;47.608;12.190;2023-07-20T04:34:47;6.13;;;4.18;;
13319;SDS011;59599;47.608;12.190;2023-07-20T04:37:13;5.60;;;4.30;;
13319;SDS011;59599;47.608;12.190;2023-07-20T04:39:39;6.72;;;4.03;;
13319;SDS011;59599;47.608;12.190;2023-07-20T04:42:05;5.72;;;4.05;;
13319;SDS011;59599;47.608;12.190;2023-07-20T04:44:31;6.65;;;4.25;;
13319;SDS011;59599;47.608;12.190;2023-07-20T04:46:56;5.50;;;4.30;;
13319;SDS011;59599;47.608;12.190;2023-07-20T04:49:22;4.72;;;3.78;;
13319;SDS011;59599;47.608;12.190;2023-07-20T04:51:48;10.10;;;3.92;;
13319;SDS011;59599;47.608;12.190;2023-07-20T04:54:14;6.10;;;4.05;;
13319;SDS011;59599;47.608;12.190;2023-07-20T04:56:42;5.53;;;3.67;;
13319;SDS011;59599;47.608;12.190;2023-07-20T04:59:08;6.25;;;4.00;;
13319;SDS011;59599;47.608;12.190;2023-07-20T05:01:34;5.18;;;3.53;;
13319;SDS011;59599;47.608;12.190;2023-07-20T05:04:00;5.38;;;3.55;;
13319;SDS011;59599;47.608;12.190;2023-07-20T05:06:25;7.78;;;3.60;;
13319;SDS011;59599;47.608;12.190;2023-07-20T05:08:51;3.83;;;3.20;;
13319;SDS011;59599;47.608;12.190;2023-07-20T05:11:17;7.15;;;3.50;;
13319;SDS011;59599;47.608;12.190;2023-07-20T05:13:43;4.60;;;3.47;;
13319;SDS011;59599;47.608;12.190;2023-07-20T05:16:08;5.07;;;3.60;;
13319;SDS011;59599;47.608;12.190;2023-07-20T05:18:34;5.40;;;3.33;;
13319;SDS011;59599;47.608;12.190;2023-07-20T05:21:00;6.47;;;3.58;;
13319;SDS011;59599;47.608;12.190;2023-07-20T05:23:26;7.82;;;3.50;;
13319;SDS011;59599;47.608;12.190;2023-07-20T05:25:56;4.07;;;3.63;;
13319;SDS011;59599;47.608;12.190;2023-07-20T05:28:23;4.75;;;3.20;;
13319;SDS011;59599;47.608;12.190;2023-07-20T05:30:49;5.57;;;3.70;;
13319;SDS011;59599;47.608;12.190;2023-07-20T05:33:16;4.43;;;3.35;;
13319;SDS011;59599;47.608;12.190;2023-07-20T05:35:42;3.53;;;3.20;;
13319;SDS011;59599;47.608;12.190;2023-07-20T05:38:08;4.95;;;3.28;;
13319;SDS011;59599;47.608;12.190;2023-07-20T05:40:37;6.10;;;3.63;;
13319;SDS011;59599;47.608;12.190;2023-07-20T05:43:04;4.00;;;3.30;;
13319;SDS011;59599;47.608;12.190;2023-07-20T05:45:30;3.90;;;3.50;;
13319;SDS011;59599;47.608;12.190;2023-07-20T05:47:56;5.38;;;3.42;;
13319;SDS011;59599;47.608;12.190;2023-07-20T05:50:21;6.50;;;3.40;;
13319;SDS011;59599;47.608;12.190;2023-07-20T05:52:47;4.78;;;3.75;;
13319;SDS011;59599;47.608;12.190;2023-07-20T05:55:13;7.07;;;3.70;;
13319;SDS011;59599;47.608;12.190;2023-07-20T05:57:39;6.78;;;3.85;;
13319;SDS011;59599;47.608;12.190;2023-07-20T06:00:07;5.43;;;3.30;;
13319;SDS011;59599;47.608;12.190;2023-07-20T06:02:33;5.30;;;3.05;;
13319;SDS011;59599;47.608;12.190;2023-07-20T06:05:00;8.23;;;3.30;;
13319;SDS011;59599;47.608;12.190;2023-07-20T06:07:26;3.83;;;2.85;;
13319;SDS011;59599;47.608;12.190;2023-07-20T06:09:52;5.82;;;2.97;;
13319;SDS011;59599;47.608;12.190;2023-07-20T06:12:18;3.20;;;2.90;;
13319;SDS011;59599;47.608;12.190;2023-07-20T06:14:44;4.70;;;3.22;;
13319;SDS011;59599;47.608;12.190;2023-07-20T06:17:10;4.63;;;3.10;;
13319;SDS011;59599;47.608;12.190;2023-07-20T06:19:36;5.78;;;3.00;;
13319;SDS011;59599;47.608;12.190;2023-07-20T06:22:02;3.35;;;2.40;;
13319;SDS011;59599;47.608;12.190;2023-07-20T06:24:28;8.02;;;2.70;;
13319;SDS011;59599;47.608;12.190;2023-07-20T06:26:54;5.43;;;2.20;;
13319;SDS011;59599;47.608;12.190;2023-07-20T06:29:20;9.20;;;3.00;;
13319;SDS011;59599;47.608;12.190;2023-07-20T06:31:46;4.10;;;2.20;;
13319;SDS011;59599;47.608;12.190;2023-07-20T06:34:12;3.28;;;2.60;;
13319;SDS011;59599;47.608;12.190;2023-07-20T06:36:38;3.85;;;2.38;;
13319;SDS011;59599;47.608;12.190;2023-07-20T06:39:04;3.80;;;2.63;;
13319;SDS011;59599;47.608;12.190;2023-07-20T06:41:30;5.28;;;2.65;;
13319;SDS011;59599;47.608;12.190;2023-07-20T06:43:56;4.10;;;1.88;;
13319;SDS011;59599;47.608;12.190;2023-07-20T06:46:26;4.40;;;2.25;;
13319;SDS011;59599;47.608;12.190;2023-07-20T06:48:51;8.82;;;2.70;;
13319;SDS011;59599;47.608;12.190;2023-07-20T06:51:17;2.78;;;2.38;;
13319;SDS011;59599;47.608;12.190;2023-07-20T06:53:43;3.42;;;2.50;;
13319;SDS011;59599;47.608;12.190;2023-07-20T06:56:09;6.30;;;2.35;;
13319;SDS011;59599;47.608;12.190;2023-07-20T06:58:36;3.85;;;2.28;;
13319;SDS011;59599;47.608;12.190;2023-07-20T07:01:08;3.72;;;2.50;;
13319;SDS011;59599;47.608;12.190;2023-07-20T07:03:33;3.78;;;2.25;;
13319;SDS011;59599;47.608;12.190;2023-07-20T07:05:59;3.03;;;2.22;;
13319;SDS011;59599;47.608;12.190;2023-07-20T07:08:25;5.82;;;2.65;;
13319;SDS011;59599;47.608;12.190;2023-07-20T07:10:51;4.95;;;2.17;;
13319;SDS011;59599;47.608;12.190;2023-07-20T07:13:17;3.03;;;2.17;;
13319;SDS011;59599;47.608;12.190;2023-07-20T07:15:43;4.47;;;2.50;;
13319;SDS011;59599;47.608;12.190;2023-07-20T07:18:10;4.45;;;2.40;;
13319;SDS011;59599;47.608;12.190;2023-07-20T07:20:35;3.13;;;2.03;;
13319;SDS011;59599;47.608;12.190;2023-07-20T07:23:01;3.95;;;2.58;;
13319;SDS011;59599;47.608;12.190;2023-07-20T07:25:27;4.35;;;2.17;;
13319;SDS011;59599;47.608;12.190;2023-07-20T07:27:53;3.60;;;2.20;;
13319;SDS011;59599;47.608;12.190;2023-07-20T07:30:20;4.65;;;2.00;;
13319;SDS011;59599;47.608;12.190;2023-07-20T07:32:46;2.50;;;1.80;;
13319;SDS011;59599;47.608;12.190;2023-07-20T07:35:12;4.15;;;2.08;;
13319;SDS011;59599;47.608;12.190;2023-07-20T07:37:38;2.63;;;2.00;;
13319;SDS011;59599;47.608;12.190;2023-07-20T07:40:04;5.55;;;2.00;;
13319;SDS011;59599;47.608;12.190;2023-07-20T07:42:31;4.25;;;1.92;;
13319;SDS011;59599;47.608;12.190;2023-07-20T07:44:56;4.75;;;1.88;;
13319;SDS011;59599;47.608;12.190;2023-07-20T07:47:22;3.10;;;1.92;;
13319;SDS011;59599;47.608;12.190;2023-07-20T07:49:48;2.38;;;1.90;;
13319;SDS011;59599;47.608;12.190;2023-07-20T07:52:14;4.70;;;2.17;;
13319;SDS011;59599;47.608;12.190;2023-07-20T07:54:40;4.90;;;2.22;;
13319;SDS011;59599;47.608;12.190;2023-07-20T07:57:06;2.13;;;1.90;;
13319;SDS011;59599;47.608;12.190;2023-07-20T07:59:32;3.25;;;2.00;;
13319;SDS011;59599;47.608;12.190;2023-07-20T08:02:02;6.90;;;2.03;;
13319;SDS011;59599;47.608;12.190;2023-07-20T08:04:29;2.35;;;1.75;;
13319;SDS011;59599;47.608;12.190;2023-07-20T08:06:55;3.80;;;2.08;;
13319;SDS011;59599;47.608;12.190;2023-07-20T08:09:20;5.60;;;1.95;;
13319;SDS011;59599;47.608;12.190;2023-07-20T08:11:46;2.67;;;1.90;;
13319;SDS011;59599;47.608;12.190;2023-07-20T08:14:13;2.67;;;1.90;;
13319;SDS011;59599;47.608;12.190;2023-07-20T08:16:39;4.80;;;2.38;;
13319;SDS011;59599;47.608;12.190;2023-07-20T08:19:05;4.15;;;1.70;;
13319;SDS011;59599;47.608;12.190;2023-07-20T08:21:31;4.00;;;1.95;;
13319;SDS011;59599;47.608;12.190;2023-07-20T08:23:57;3.35;;;2.00;;
13319;SDS011;59599;47.608;12.190;2023-07-20T08:26:23;3.28;;;1.85;;
13319;SDS011;59599;47.608;12.190;2023-07-20T08:28:49;4.28;;;1.90;;
13319;SDS011;59599;47.608;12.190;2023-07-20T08:31:15;2.60;;;1.77;;
13319;SDS011;59599;47.608;12.190;2023-07-20T08:33:41;7.07;;;2.15;;
13319;SDS011;59599;47.608;12.190;2023-07-20T08:36:06;2.78;;;2.17;;
13319;SDS011;59599;47.608;12.190;2023-07-20T08:38:32;3.40;;;2.00;;
13319;SDS011;59599;47.608;12.190;2023-07-20T08:40:58;5.45;;;2.25;;
13319;SDS011;59599;47.608;12.190;2023-07-20T08:43:25;5.82;;;2.17;;
13319;SDS011;59599;47.608;12.190;2023-07-20T08:45:51;3.40;;;2.10;;
13319;SDS011;59599;47.608;12.190;2023-07-20T08:48:18;8.45;;;1.88;;
13319;SDS011;59599;47.608;12.190;2023-07-20T08:50:46;4.85;;;2.28;;
13319;SDS011;59599;47.608;12.190;2023-07-20T08:53:14;4.60;;;2.17;;
13319;SDS011;59599;47.608;12.190;2023-07-20T08:55:40;4.15;;;2.22;;
13319;SDS011;59599;47.608;12.190;2023-07-20T08:58:08;3.53;;;2.20;;
13319;SDS011;59599;47.608;12.190;2023-07-20T09:00:37;2.60;;;2.08;;
13319;SDS011;59599;47.608;12.190;2023-07-20T09:03:03;3.10;;;2.17;;
13319;SDS011;59599;47.608;12.190;2023-07-20T09:05:30;3.30;;;1.95;;
13319;SDS011;59599;47.608;12.190;2023-07-20T09:07:56;2.90;;;1.70;;
13319;SDS011;59599;47.608;12.190;2023-07-20T09:10:23;3.05;;;1.85;;
13319;SDS011;59599;47.608;12.190;2023-07-20T09:12:49;5.07;;;2.00;;
13319;SDS011;59599;47.608;12.190;2023-07-20T09:15:15;1.60;;;1.50;;
13319;SDS011;59599;47.608;12.190;2023-07-20T09:17:45;3.03;;;1.92;;
13319;SDS011;59599;47.608;12.190;2023-07-20T09:20:12;2.13;;;1.70;;
13319;SDS011;59599;47.608;12.190;2023-07-20T09:22:38;3.10;;;1.88;;
13319;SDS011;59599;47.608;12.190;2023-07-20T09:25:07;2.85;;;2.05;;
13319;SDS011;59599;47.608;12.190;2023-07-20T09:27:40;5.18;;;3.10;;
13319;SDS011;59599;47.608;12.190;2023-07-20T09:30:06;2.67;;;1.90;;
13319;SDS011;59599;47.608;12.190;2023-07-20T09:32:40;5.30;;;2.20;;
13319;SDS011;59599;47.608;12.190;2023-07-20T09:35:12;3.22;;;2.10;;
13319;SDS011;59599;47.608;12.190;2023-07-20T09:37:39;4.65;;;1.85;;
13319;SDS011;59599;47.608;12.190;2023-07-20T09:40:06;3.22;;;1.73;;
13319;SDS011;59599;47.608;12.190;2023-07-20T09:42:34;3.05;;;1.90;;
13319;SDS011;59599;47.608;12.190;2023-07-20T09:45:01;5.03;;;2.20;;
13319;SDS011;59599;47.608;12.190;2023-07-20T09:47:27;2.22;;;1.73;;
13319;SDS011;59599;47.608;12.190;2023-07-20T09:50:00;3.60;;;1.90;;
13319;SDS011;59599;47.608;12.190;2023-07-20T09:52:25;12.05;;;2.10;;
13319;SDS011;59599;47.608;12.190;2023-07-20T09:54:51;3.38;;;1.83;;
13319;SDS011;59599;47.608;12.190;2023-07-20T09:57:19;2.80;;;1.92;;
13319;SDS011;59599;47.608;12.190;2023-07-20T09:59:46;3.60;;;2.17;;
13319;SDS011;59599;47.608;12.190;2023-07-20T10:02:17;4.03;;;2.20;;
13319;SDS011;59599;47.608;12.190;2023-07-20T10:04:48;3.25;;;1.92;;
13319;SDS011;59599;47.608;12.190;2023-07-20T10:07:17;7.00;;;2.30;;
13319;SDS011;59599;47.608;12.190;2023-07-20T10:09:47;3.45;;;1.65;;
13319;SDS011;59599;47.608;12.190;2023-07-20T10:12:14;3.53;;;1.90;;
13319;SDS011;59599;47.608;12.190;2023-07-20T10:14:41;3.83;;;2.20;;
13319;SDS011;59599;47.608;12.190;2023-07-20T10:17:09;3.28;;;2.05;;
13319;SDS011;59599;47.608;12.190;2023-07-20T10:19:44;4.00;;;1.75;;
13319;SDS011;59599;47.608;12.190;2023-07-20T10:22:17;4.88;;;1.77;;
13319;SDS011;59599;47.608;12.190;2023-07-20T10:24:45;3.50;;;1.55;;
13319;SDS011;59599;47.608;12.190;2023-07-20T10:27:14;5.35;;;1.60;;
13319;SDS011;59599;47.608;12.190;2023-07-20T10:29:41;6.65;;;2.00;;
13319;SDS011;59599;47.608;12.190;2023-07-20T10:32:07;3.53;;;1.80;;
13319;SDS011;59599;47.608;12.190;2023-07-20T10:34:33;4.47;;;1.98;;
13319;SDS011;59599;47.608;12.190;2023-07-20T10:36:59;15.20;;;2.53;;
13319;SDS011;59599;47.608;12.190;2023-07-20T10:39:26;3.53;;;2.03;;
13319;SDS011;59599;47.608;12.190;2023-07-20T10:42:00;5.50;;;1.77;;
13319;SDS011;59599;47.608;12.190;2023-07-20T10:44:26;3.13;;;1.92;;
13319;SDS011;59599;47.608;12.190;2023-07-20T10:46:52;4.20;;;1.90;;
13319;SDS011;59599;47.608;12.190;2023-07-20T10:49:27;4.20;;;1.83;;
13319;SDS011;59599;47.608;12.190;2023-07-20T10:51:56;4.35;;;2.00;;
13319;SDS011;59599;47.608;12.190;2023-07-20T10:56:52;2.30;;;1.88;;
13319;SDS011;59599;47.608;12.190;2023-07-20T11:01:50;3.80;;;1.90;;
13319;SDS011;59599;47.608;12.190;2023-07-20T11:04:21;3.95;;;1.75;;
13319;SDS011;59599;47.608;12.190;2023-07-20T11:07:04;4.97;;;1.85;;
13319;SDS011;59599;47.608;12.190;2023-07-20T11:09:33;4.30;;;1.88;;
13319;SDS011;59599;47.608;12.190;2023-07-20T11:12:13;7.32;;;1.77;;
13319;SDS011;59599;47.608;12.190;2023-07-20T11:14:40;6.47;;;1.90;;
13319;SDS011;59599;47.608;12.190;2023-07-20T11:17:19;3.08;;;1.88;;
13319;SDS011;59599;47.608;12.190;2023-07-20T11:19:50;3.60;;;1.70;;
13319;SDS011;59599;47.608;12.190;2023-07-20T11:22:21;6.40;;;2.00;;
13319;SDS011;59599;47.608;12.190;2023-07-20T11:24:47;3.70;;;1.80;;
13319;SDS011;59599;47.608;12.190;2023-07-20T11:27:16;3.05;;;1.80;;
13319;SDS011;59599;47.608;12.190;2023-07-20T11:29:47;3.85;;;1.67;;
13319;SDS011;59599;47.608;12.190;2023-07-20T11:32:13;5.22;;;1.77;;
13319;SDS011;59599;47.608;12.190;2023-07-20T11:34:46;2.70;;;1.85;;
13319;SDS011;59599;47.608;12.190;2023-07-20T11:37:12;6.13;;;1.90;;
13319;SDS011;59599;47.608;12.190;2023-07-20T11:39:38;3.72;;;1.70;;
13319;SDS011;59599;47.608;12.190;2023-07-20T11:42:04;4.40;;;1.90;;
13319;SDS011;59599;47.608;12.190;2023-07-20T11:44:31;4.43;;;2.03;;
13319;SDS011;59599;47.608;12.190;2023-07-20T11:47:02;4.90;;;1.95;;
13319;SDS011;59599;47.608;12.190;2023-07-20T11:49:40;4.53;;;2.00;;
13319;SDS011;59599;47.608;12.190;2023-07-20T11:52:10;3.13;;;1.80;;
13319;SDS011;59599;47.608;12.190;2023-07-20T11:54:37;3.33;;;1.77;;
13319;SDS011;59599;47.608;12.190;2023-07-20T11:57:04;2.50;;;1.90;;
13319;SDS011;59599;47.608;12.190;2023-07-20T11:59:30;2.45;;;1.90;;
13319;SDS011;59599;47.608;12.190;2023-07-20T12:01:56;4.22;;;2.40;;
13319;SDS011;59599;47.608;12.190;2023-07-20T12:04:23;9.10;;;2.22;;
13319;SDS011;59599;47.608;12.190;2023-07-20T12:06:48;2.88;;;1.63;;
13319;SDS011;59599;47.608;12.190;2023-07-20T12:09:15;3.53;;;1.90;;
13319;SDS011;59599;47.608;12.190;2023-07-20T12:11:43;1.90;;;1.60;;
13319;SDS011;59599;47.608;12.190;2023-07-20T12:14:10;3.40;;;2.00;;
13319;SDS011;59599;47.608;12.190;2023-07-20T12:16:36;3.35;;;1.98;;
13319;SDS011;59599;47.608;12.190;2023-07-20T12:19:06;6.10;;;2.00;;
13319;SDS011;59599;47.608;12.190;2023-07-20T12:21:36;3.30;;;2.05;;
13319;SDS011;59599;47.608;12.190;2023-07-20T12:24:04;2.28;;;1.80;;
13319;SDS011;59599;47.608;12.190;2023-07-20T12:26:30;4.60;;;2.13;;
13319;SDS011;59599;47.608;12.190;2023-07-20T12:28:57;6.07;;;2.17;;
13319;SDS011;59599;47.608;12.190;2023-07-20T12:31:23;5.75;;;2.17;;
13319;SDS011;59599;47.608;12.190;2023-07-20T12:33:50;3.40;;;2.10;;
13319;SDS011;59599;47.608;12.190;2023-07-20T12:36:16;3.70;;;1.80;;
13319;SDS011;59599;47.608;12.190;2023-07-20T12:38:42;3.20;;;1.92;;
13319;SDS011;59599;47.608;12.190;2023-07-20T12:41:09;4.43;;;1.80;;
13319;SDS011;59599;47.608;12.190;2023-07-20T12:43:37;2.47;;;1.85;;
13319;SDS011;59599;47.608;12.190;2023-07-20T12:46:03;1.75;;;1.40;;
13319;SDS011;59599;47.608;12.190;2023-07-20T12:48:29;4.60;;;2.08;;
13319;SDS011;59599;47.608;12.190;2023-07-20T12:50:54;2.70;;;1.80;;
13319;SDS011;59599;47.608;12.190;2023-07-20T12:53:20;2.47;;;1.80;;
13319;SDS011;59599;47.608;12.190;2023-07-20T12:55:46;3.08;;;1.55;;
13319;SDS011;59599;47.608;12.190;2023-07-20T12:58:12;3.25;;;2.05;;
13319;SDS011;59599;47.608;12.190;2023-07-20T13:00:38;5.88;;;2.10;;
13319;SDS011;59599;47.608;12.190;2023-07-20T13:03:04;2.20;;;1.73;;
13319;SDS011;59599;47.608;12.190;2023-07-20T13:05:31;4.38;;;1.98;;
13319;SDS011;59599;47.608;12.190;2023-07-20T13:07:57;5.95;;;2.03;;
13319;SDS011;59599;47.608;12.190;2023-07-20T13:10:23;2.88;;;1.80;;
13319;SDS011;59599;47.608;12.190;2023-07-20T13:12:49;3.13;;;1.80;;
13319;SDS011;59599;47.608;12.190;2023-07-20T13:15:15;5.43;;;2.00;;
13319;SDS011;59599;47.608;12.190;2023-07-20T13:17:42;2.00;;;1.60;;
13319;SDS011;59599;47.608;12.190;2023-07-20T13:20:08;3.05;;;1.58;;
13319;SDS011;59599;47.608;12.190;2023-07-20T13:22:36;3.70;;;1.80;;
13319;SDS011;59599;47.608;12.190;2023-07-20T13:25:02;3.15;;;1.80;;
13319;SDS011;59599;47.608;12.190;2023-07-20T13:27:28;5.43;;;2.22;;
13319;SDS011;59599;47.608;12.190;2023-07-20T13:29:53;3.70;;;2.10;;
13319;SDS011;59599;47.608;12.190;2023-07-20T13:32:19;4.82;;;2.00;;
13319;SDS011;59599;47.608;12.190;2023-07-20T13:34:45;4.22;;;2.08;;
13319;SDS011;59599;47.608;12.190;2023-07-20T13:37:12;5.07;;;1.98;;
13319;SDS011;59599;47.608;12.190;2023-07-20T13:39:38;4.32;;;2.00;;
13319;SDS011;59599;47.608;12.190;2023-07-20T13:42:04;4.47;;;2.17;;
13319;SDS011;59599;47.608;12.190;2023-07-20T13:44:34;2.35;;;1.60;;
13319;SDS011;59599;47.608;12.190;2023-07-20T13:47:00;4.55;;;1.92;;
13319;SDS011;59599;47.608;12.190;2023-07-20T13:49:26;5.93;;;2.00;;
13319;SDS011;59599;47.608;12.190;2023-07-20T13:51:52;3.88;;;2.00;;
13319;SDS011;59599;47.608;12.190;2023-07-20T13:54:17;5.90;;;2.20;;
13319;SDS011;59599;47.608;12.190;2023-07-20T13:56:43;4.15;;;2.30;;
13319;SDS011;59599;47.608;12.190;2023-07-20T13:59:08;5.88;;;2.67;;
13319;SDS011;59599;47.608;12.190;2023-07-20T14:01:34;2.45;;;2.00;;
13319;SDS011;59599;47.608;12.190;2023-07-20T14:04:01;3.10;;;1.75;;
13319;SDS011;59599;47.608;12.190;2023-07-20T14:06:30;5.10;;;2.10;;
13319;SDS011;59599;47.608;12.190;2023-07-20T14:08:57;6.47;;;2.20;;
13319;SDS011;59599;47.608;12.190;2023-07-20T14:11:23;5.30;;;2.10;;
13319;SDS011;59599;47.608;12.190;2023-07-20T14:13:49;5.13;;;2.22;;
13319;SDS011;59599;47.608;12.190;2023-07-20T14:16:16;4.43;;;2.30;;
13319;SDS011;59599;47.608;12.190;2023-07-20T14:18:41;5.40;;;2.10;;
13319;SDS011;59599;47.608;12.190;2023-07-20T14:21:07;3.60;;;1.92;;
13319;SDS011;59599;47.608;12.190;2023-07-20T14:23:33;3.72;;;2.10;;
13319;SDS011;59599;47.608;12.190;2023-07-20T14:25:59;4.30;;;2.13;;
13319;SDS011;59599;47.608;12.190;2023-07-20T14:28:25;5.60;;;2.45;;
13319;SDS011;59599;47.608;12.190;2023-07-20T14:30:51;3.13;;;2.30;;
13319;SDS011;59599;47.608;12.190;2023-07-20T14:33:17;3.10;;;1.98;;
13319;SDS011;59599;47.608;12.190;2023-07-20T14:35:42;7.18;;;2.53;;
13319;SDS011;59599;47.608;12.190;2023-07-20T14:38:08;4.35;;;2.05;;
13319;SDS011;59599;47.608;12.190;2023-07-20T14:40:35;2.85;;;1.98;;
13319;SDS011;59599;47.608;12.190;2023-07-20T14:43:00;4.88;;;2.03;;
13319;SDS011;59599;47.608;12.190;2023-07-20T14:45:29;3.78;;;2.22;;
13319;SDS011;59599;47.608;12.190;2023-07-20T14:47:54;3.35;;;2.15;;
13319;SDS011;59599;47.608;12.190;2023-07-20T14:50:20;3.05;;;2.20;;
13319;SDS011;59599;47.608;12.190;2023-07-20T14:52:46;4.75;;;2.10;;
13319;SDS011;59599;47.608;12.190;2023-07-20T14:55:13;2.85;;;2.03;;
13319;SDS011;59599;47.608;12.190;2023-07-20T14:57:39;4.13;;;2.28;;
13319;SDS011;59599;47.608;12.190;2023-07-20T15:00:04;2.78;;;2.00;;
13319;SDS011;59599;47.608;12.190;2023-07-20T15:02:33;2.70;;;2.00;;
13319;SDS011;59599;47.608;12.190;2023-07-20T15:04:58;2.60;;;2.15;;
13319;SDS011;59599;47.608;12.190;2023-07-20T15:07:24;4.68;;;2.38;;
13319;SDS011;59599;47.608;12.190;2023-07-20T15:09:51;4.65;;;2.10;;
13319;SDS011;59599;47.608;12.190;2023-07-20T15:12:17;3.80;;;2.20;;
13319;SDS011;59599;47.608;12.190;2023-07-20T15:14:43;2.88;;;2.33;;
13319;SDS011;59599;47.608;12.190;2023-07-20T15:17:09;4.50;;;2.15;;
13319;SDS011;59599;47.608;12.190;2023-07-20T15:19:35;3.63;;;2.17;;
13319;SDS011;59599;47.608;12.190;2023-07-20T15:22:01;4.93;;;1.95;;
13319;SDS011;59599;47.608;12.190;2023-07-20T15:24:29;5.35;;;2.17;;
13319;SDS011;59599;47.608;12.190;2023-07-20T15:26:55;4.15;;;2.47;;
13319;SDS011;59599;47.608;12.190;2023-07-20T15:29:22;5.20;;;2.40;;
13319;SDS011;59599;47.608;12.190;2023-07-20T15:31:48;3.38;;;2.17;;
13319;SDS011;59599;47.608;12.190;2023-07-20T15:34:13;4.45;;;2.30;;
13319;SDS011;59599;47.608;12.190;2023-07-20T15:36:40;3.03;;;2.15;;
13319;SDS011;59599;47.608;12.190;2023-07-20T15:39:06;5.32;;;2.40;;
13319;SDS011;59599;47.608;12.190;2023-07-20T15:41:32;5.03;;;2.05;;
13319;SDS011;59599;47.608;12.190;2023-07-20T15:43:58;3.58;;;2.30;;
13319;SDS011;59599;47.608;12.190;2023-07-20T15:46:43;3.17;;;1.75;;
13319;SDS011;59599;47.608;12.190;2023-07-20T15:49:09;3.63;;;2.08;;
13319;SDS011;59599;47.608;12.190;2023-07-20T15:51:35;7.70;;;2.03;;
13319;SDS011;59599;47.608;12.190;2023-07-20T15:54:05;3.15;;;2.38;;
13319;SDS011;59599;47.608;12.190;2023-07-20T15:56:34;4.57;;;2.10;;
13319;SDS011;59599;47.608;12.190;2023-07-20T15:59:00;3.42;;;2.15;;
13319;SDS011;59599;47.608;12.190;2023-07-20T16:01:26;2.45;;;2.10;;
13319;SDS011;59599;47.608;12.190;2023-07-20T16:03:52;5.30;;;2.15;;
13319;SDS011;59599;47.608;12.190;2023-07-20T16:06:18;5.78;;;2.28;;
13319;SDS011;59599;47.608;12.190;2023-07-20T16:08:43;6.68;;;2.30;;
13319;SDS011;59599;47.608;12.190;2023-07-20T16:11:09;2.78;;;2.03;;
13319;SDS011;59599;47.608;12.190;2023-07-20T16:13:34;3.33;;;2.10;;
13319;SDS011;59599;47.608;12.190;2023-07-20T16:16:00;4.25;;;2.35;;
13319;SDS011;59599;47.608;12.190;2023-07-20T16:18:26;3.53;;;1.95;;
13319;SDS011;59599;47.608;12.190;2023-07-20T16:20:52;5.45;;;2.03;;
13319;SDS011;59599;47.608;12.190;2023-07-20T16:23:18;2.33;;;1.90;;
13319;SDS011;59599;47.608;12.190;2023-07-20T16:25:45;3.22;;;2.20;;
13319;SDS011;59599;47.608;12.190;2023-07-20T16:28:11;4.05;;;2.65;;
13319;SDS011;59599;47.608;12.190;2023-07-20T16:30:36;2.78;;;1.95;;
13319;SDS011;59599;47.608;12.190;2023-07-20T16:33:02;2.90;;;2.33;;
13319;SDS011;59599;47.608;12.190;2023-07-20T16:35:29;3.05;;;2.10;;
13319;SDS011;59599;47.608;12.190;2023-07-20T16:37:55;2.42;;;2.00;;
13319;SDS011;59599;47.608;12.190;2023-07-20T16:40:21;5.65;;;2.50;;
13319;SDS011;59599;47.608;12.190;2023-07-20T16:42:47;7.32;;;2.25;;
13319;SDS011;59599;47.608;12.190;2023-07-20T16:45:13;5.45;;;2.25;;
13319;SDS011;59599;47.608;12.190;2023-07-20T16:47:39;3.97;;;2.53;;
13319;SDS011;59599;47.608;12.190;2023-07-20T16:50:05;3.97;;;2.35;;
13319;SDS011;59599;47.608;12.190;2023-07-20T16:52:31;3.63;;;2.45;;
13319;SDS011;59599;47.608;12.190;2023-07-20T16:54:56;3.75;;;2.40;;
13319;SDS011;59599;47.608;12.190;2023-07-20T16:57:22;3.15;;;2.22;;
13319;SDS011;59599;47.608;12.190;2023-07-20T16:59:48;5.00;;;2.70;;
13319;SDS011;59599;47.608;12.190;2023-07-20T17:02:14;3.22;;;2.67;;
13319;SDS011;59599;47.608;12.190;2023-07-20T17:04:40;3.35;;;2.50;;
13319;SDS011;59599;47.608;12.190;2023-07-20T17:07:06;8.55;;;2.70;;
13319;SDS011;59599;47.608;12.190;2023-07-20T17:09:31;4.97;;;3.03;;
13319;SDS011;59599;47.608;12.190;2023-07-20T17:12:00;3.47;;;2.50;;
13319;SDS011;59599;47.608;12.190;2023-07-20T17:14:26;2.80;;;2.42;;
13319;SDS011;59599;47.608;12.190;2023-07-20T17:16:52;4.57;;;2.92;;
13319;SDS011;59599;47.608;12.190;2023-07-20T17:19:18;2.92;;;2.58;;
13319;SDS011;59599;47.608;12.190;2023-07-20T17:21:44;3.22;;;2.50;;
13319;SDS011;59599;47.608;12.190;2023-07-20T17:24:10;3.58;;;2.50;;
13319;SDS011;59599;47.608;12.190;2023-07-20T17:26:36;3.90;;;2.85;;
13319;SDS011;59599;47.608;12.190;2023-07-20T17:29:02;6.80;;;2.40;;
13319;SDS011;59599;47.608;12.190;2023-07-20T17:31:29;4.80;;;2.60;;
13319;SDS011;59599;47.608;12.190;2023-07-20T17:33:55;3.75;;;1.83;;
13319;SDS011;59599;47.608;12.190;2023-07-20T17:36:21;2.45;;;2.13;;
13319;SDS011;59599;47.608;12.190;2023-07-20T17:38:47;4.88;;;2.50;;
13319;SDS011;59599;47.608;12.190;2023-07-20T17:41:13;3.50;;;2.05;;
13319;SDS011;59599;47.608;12.190;2023-07-20T17:43:39;3.55;;;2.35;;
13319;SDS011;59599;47.608;12.190;2023-07-20T17:46:05;4.25;;;2.40;;
13319;SDS011;59599;47.608;12.190;2023-07-20T17:48:31;2.58;;;1.88;;
13319;SDS011;59599;47.608;12.190;2023-07-20T17:50:57;3.10;;;2.20;;
13319;SDS011;59599;47.608;12.190;2023-07-20T17:53:23;3.40;;;2.13;;
13319;SDS011;59599;47.608;12.190;2023-07-20T17:55:50;4.13;;;2.45;;
13319;SDS011;59599;47.608;12.190;2023-07-20T17:58:16;5.15;;;2.40;;
13319;SDS011;59599;47.608;12.190;2023-07-20T18:00:42;4.75;;;2.50;;
13319;SDS011;59599;47.608;12.190;2023-07-20T18:03:08;2.88;;;2.58;;
13319;SDS011;59599;47.608;12.190;2023-07-20T18:05:34;3.85;;;2.22;;
13319;SDS011;59599;47.608;12.190;2023-07-20T18:08:00;4.40;;;2.55;;
13319;SDS011;59599;47.608;12.190;2023-07-20T18:10:25;3.25;;;2.28;;
13319;SDS011;59599;47.608;12.190;2023-07-20T18:12:51;4.88;;;2.28;;
13319;SDS011;59599;47.608;12.190;2023-07-20T18:15:17;3.75;;;2.28;;
13319;SDS011;59599;47.608;12.190;2023-07-20T18:17:44;2.97;;;2.45;;
13319;SDS011;59599;47.608;12.190;2023-07-20T18:20:10;2.67;;;2.20;;
13319;SDS011;59599;47.608;12.190;2023-07-20T18:22:36;5.68;;;2.10;;
13319;SDS011;59599;47.608;12.190;2023-07-20T18:25:02;5.18;;;2.40;;
13319;SDS011;59599;47.608;12.190;2023-07-20T18:27:29;4.95;;;2.30;;
13319;SDS011;59599;47.608;12.190;2023-07-20T18:29:55;2.95;;;2.53;;
13319;SDS011;59599;47.608;12.190;2023-07-20T18:32:22;3.10;;;2.00;;
13319;SDS011;59599;47.608;12.190;2023-07-20T18:34:47;4.03;;;2.33;;